Terminal Aerodrome Forecast
Issued by NWS Mobile, AL

Home | Current Version | Previous Version | Text Only | Print | Product List | Glossary On
Versions: 1 2 3 4 5 6 7 8 9 10 11 12 13 14 15 16 17 18 19 20 21 22 23 24 25 26 27 28 29 30 31 32 33 34 35 36 37 38
000
FTUS44 KMOB 031120
TAFMOB
TAF
KMOB 031120Z 0312/0412 31005KT 3SM BR OVC004
     FM031300 34007KT 6SM BR VCSH FEW005 SCT009 OVC015
     FM031700 35008KT P6SM VCSH BKN040
     FM040000 35008KT P6SM BKN050
     FM040900 34008KT P6SM SKC=

USA.gov is the U.S. government's official web portal to all federal, state and local government web resources and services.